Flight Track Log - Related Links

Times and Time Zones

All times are in EDT time to prevent confusion due to time zone crossing. See the MTN8308 flight status page for this flight to view local times or setup timezone preferences in your user account.


Time Position Orientation Groundspeed Altitude Reporting Facility
EDT Latitude Longitude Course Direction KTS MPH feet Rate Location/Type
Thu 03:23:34 AM 40.6500 -74.2000 237° Southwest 104 120 1,300  Level New York TRACON
Thu 03:24:34 AM 40.6333 -74.2333 237° Southwest 117 135 2,100 750 Climbing New York TRACON
Thu 03:25:34 AM 40.6167 -74.2667 237° Southwest 131 151 2,800 650 Climbing New York TRACON
Thu 03:26:34 AM 40.6000 -74.3167 246° West 146 168 3,400 550 Climbing New York TRACON
Thu 03:27:34 AM 40.5833 -74.3500 237° Southwest 156 180 3,900 300 Climbing New York TRACON
Thu 03:28:34 AM 40.5500 -74.4000 229° Southwest 173 199 4,000 100 Climbing New York TRACON
Thu 03:29:34 AM 40.5167 -74.4667 237° Southwest 183 211 4,100 50 Climbing New York TRACON
Thu 03:30:34 AM 40.5000 -74.5167 246° West 184 212 4,100  Level New York TRACON
Thu 03:31:34 AM 40.4667 -74.5667 229° Southwest 183 211 4,100  Level New York TRACON
Thu 03:32:34 AM 40.4333 -74.6333 237° Southwest 180 207 4,100  Level New York TRACON
Thu 03:33:34 AM 40.4167 -74.6833 246° West 180 207 4,100  Level New York TRACON
Thu 03:34:34 AM 40.3833 -74.7333 229° Southwest 179 206 4,100  Level New York TRACON
Thu 03:35:34 AM 40.3500 -74.7833 229° Southwest 179 206 4,100  Level New York TRACON
Thu 03:36:34 AM 40.3167 -74.8333 229° Southwest 180 207 4,100  Level New York TRACON
Thu 03:37:40 AM 40.2833 -74.8833 229° Southwest 180 207 4,100  Level New York TRACON
Thu 03:38:40 AM 40.2500 -74.9333 229° Southwest 177 204 4,100  Level New York TRACON
Thu 03:39:40 AM 40.2167 -74.9833 229° Southwest 177 204 4,100  Level New York TRACON
Thu 03:40:40 AM 40.2000 -75.0333 246° West 177 204 4,100  Level New York TRACON
Thu 03:41:40 AM 40.1667 -75.1000 237° Southwest 180 207 4,100  Level New York TRACON
Thu 03:42:40 AM 40.1333 -75.1500 229° Southwest 179 206 4,100  Level New York TRACON
Thu 03:42:58 AM 40.1167 -75.1667 217° Southwest 178 205 4,100  Level Philadelphia TRACON
Thu 03:43:58 AM 40.0833 -75.2167 229° Southwest 179 206 4,100  Level Philadelphia TRACON
Thu 03:44:58 AM 40.0667 -75.2667 246° West 178 205 4,100  Level Philadelphia TRACON
Thu 03:45:58 AM 40.0333 -75.3167 229° Southwest 177 204 4,100  Level Philadelphia TRACON
Thu 03:46:52 AM 40.0000 -75.3500 217° Southwest 177 204 4,100  Level Philadelphia TRACON
Thu 03:47:52 AM 39.9667 -75.4000 229° Southwest 176 203 4,100  Level Philadelphia TRACON
Thu 03:48:52 AM 39.9500 -75.4500 247° West 178 205 4,100  Level Philadelphia TRACON
Thu 03:49:52 AM 39.9167 -75.5000 229° Southwest 179 206 4,100  Level Philadelphia TRACON
Thu 03:50:52 AM 39.8833 -75.5500 229° Southwest 178 205 4,100  Level Philadelphia TRACON
Thu 03:51:52 AM 39.8500 -75.6000 229° Southwest 177 204 4,100  Level Philadelphia TRACON
Thu 03:52:52 AM 39.8167 -75.6500 229° Southwest 177 204 4,100  Level Philadelphia TRACON
Thu 03:53:52 AM 39.7833 -75.7000 229° Southwest 177 204 4,100  Level Philadelphia TRACON
Thu 03:54:52 AM 39.7500 -75.7500 229° Southwest 177 204 4,100  Level Philadelphia TRACON
Thu 03:55:52 AM 39.7167 -75.8000 229° Southwest 177 204 4,100  Level Philadelphia TRACON
Thu 03:56:58 AM 39.6833 -75.8500 229° Southwest 175 201 4,100  Level Philadelphia TRACON
Thu 03:57:58 AM 39.6667 -75.9000 247° West 177 204 4,100 -76 Level Philadelphia TRACON
Thu 03:58:17 AM 39.6500 -75.9167 218° Southwest 177 204 4,000 -76 Descending Potomac TRACON
Thu 03:59:17 AM 39.6167 -75.9667 229° Southwest 177 204 4,000 63 Level Potomac TRACON
Thu 03:59:52 AM 39.6000 -76.0000 237° Southwest 176 203 4,100 63 Climbing Philadelphia TRACON
Thu 04:00:52 AM 39.5667 -76.0500 229° Southwest 178 205 4,100  Level Philadelphia TRACON
Thu 04:01:52 AM 39.5333 -76.1000 229° Southwest 175 201 4,100  Level Philadelphia TRACON
Thu 04:02:52 AM 39.5000 -76.1500 229° Southwest 176 203 4,100 -71 Level Philadelphia TRACON
Thu 04:03:17 AM 39.5000 -76.1667 270° West 176 203 4,000 -71 Descending Potomac TRACON
Thu 04:04:17 AM 39.4667 -76.2167 229° Southwest 176 203 4,000  Level Potomac TRACON
Thu 04:05:17 AM 39.4333 -76.2667 229° Southwest 173 199 4,000  Level Potomac TRACON
Thu 04:06:17 AM 39.4000 -76.3167 229° Southwest 173 199 4,000 -150 Level Potomac TRACON
Thu 04:07:17 AM 39.3833 -76.3667 247° West 176 203 3,700 -250 Descending Potomac TRACON
Thu 04:08:17 AM 39.3500 -76.4167 229° Southwest 183 211 3,500 -200 Descending Potomac TRACON
Thu 04:09:17 AM 39.3167 -76.4667 229° Southwest 179 206 3,300 -500 Descending Potomac TRACON
Thu 04:10:17 AM 39.2833 -76.5167 229° Southwest 183 211 2,500 -750 Descending Potomac TRACON
Thu 04:11:17 AM 39.2500 -76.5667 229° Southwest 185 213 1,800 -645 Descending Potomac TRACON
Thu 04:12:18 AM 39.2333 -76.6167 247° West 176 203 1,200 -595 Descending Potomac TRACON
Thu 04:13:18 AM 39.2000 -76.6667 229° Southwest 155 178 600 -600 Descending Potomac TRACON
Thu 04:15:00 AM 39.1754 -76.6683 270° West  Level Estimated

Login

Don't have an account? Register now (free) for customized features, flight alerts, and more!